createdAt,value
2018-01-21T00:00:33.771Z,34.10
2018-01-21T00:01:33.632Z,33.00
2018-01-21T00:02:33.785Z,30.20
2018-01-21T00:03:33.634Z,30.90
2018-01-21T00:04:33.637Z,34.70
2018-01-21T00:05:33.813Z,32.10
2018-01-21T00:06:33.638Z,32.00
2018-01-21T00:07:33.826Z,31.70
2018-01-21T00:08:33.660Z,33.40
2018-01-21T00:09:33.833Z,32.60
2018-01-21T00:10:33.652Z,31.10
2018-01-21T00:11:33.854Z,31.50
2018-01-21T00:12:33.670Z,33.90
2018-01-21T00:13:33.859Z,33.30
2018-01-21T00:14:33.670Z,30.30
2018-01-21T00:15:38.478Z,37.20
2018-01-21T00:16:33.691Z,34.60
2018-01-21T00:17:34.812Z,32.70
2018-01-21T00:18:33.685Z,34.00
2018-01-21T00:19:33.903Z,34.40
2018-01-21T00:20:33.694Z,30.60
2018-01-21T00:21:33.816Z,31.40
2018-01-21T00:22:33.689Z,34.50
2018-01-21T00:23:33.829Z,34.90
2018-01-21T00:24:33.736Z,37.60
2018-01-21T00:25:34.868Z,39.50
2018-01-21T00:26:33.700Z,39.70
2018-01-21T00:27:33.866Z,37.60
2018-01-21T00:28:33.733Z,40.60
2018-01-21T00:29:33.867Z,40.80
2018-01-21T00:30:33.721Z,37.40
2018-01-21T00:31:33.877Z,40.40
2018-01-21T00:32:33.741Z,41.80
2018-01-21T00:33:33.800Z,40.90
2018-01-21T00:34:33.733Z,41.70
2018-01-21T00:35:33.807Z,46.70
2018-01-21T00:36:33.738Z,42.50
2018-01-21T00:37:34.848Z,44.40
2018-01-21T00:38:33.742Z,46.20
2018-01-21T00:39:33.752Z,46.50
2018-01-21T00:40:33.840Z,43.80
2018-01-21T00:41:33.754Z,42.90
2018-01-21T00:42:34.886Z,48.10
2018-01-21T00:43:33.765Z,49.60
2018-01-21T00:44:33.870Z,47.60
2018-01-21T00:45:33.774Z,48.50
2018-01-21T00:46:33.887Z,54.50
2018-01-21T00:47:33.769Z,50.60
2018-01-21T00:48:33.900Z,50.20
2018-01-21T00:49:33.775Z,49.00
2018-01-21T00:50:33.912Z,48.00
2018-01-21T00:51:33.781Z,53.90
2018-01-21T00:52:33.838Z,50.90
2018-01-21T00:53:34.851Z,48.90
2018-01-21T00:54:33.798Z,51.30
2018-01-21T00:55:33.840Z,55.00
2018-01-21T00:56:33.809Z,54.10
2018-01-21T00:57:38.880Z,55.20
2018-01-21T00:58:33.812Z,52.10
2018-01-21T00:59:34.781Z,58.80
2018-01-21T01:00:33.877Z,54.50
2018-01-21T01:01:33.817Z,53.90
2018-01-21T01:02:34.914Z,56.20
2018-01-21T01:03:33.827Z,54.30
2018-01-21T01:04:33.840Z,54.60
2018-01-21T01:05:33.907Z,51.90
2018-01-21T01:06:33.851Z,54.80
2018-01-21T01:07:33.920Z,55.90
2018-01-21T01:08:33.863Z,53.30
2018-01-21T01:09:33.868Z,53.70
2018-01-21T01:10:33.939Z,55.80
2018-01-21T01:11:33.852Z,56.10
2018-01-21T01:12:33.859Z,56.10
2018-01-21T01:13:34.985Z,55.40
2018-01-21T01:14:33.880Z,54.30
2018-01-21T01:15:33.983Z,55.50
2018-01-21T01:16:33.862Z,54.80
2018-01-21T01:17:34.910Z,57.50
2018-01-21T01:18:33.883Z,54.10
2018-01-21T01:19:34.005Z,57.30
2018-01-21T01:20:33.960Z,58.00
2018-01-21T01:21:34.015Z,60.00
2018-01-21T01:22:33.878Z,63.30
2018-01-21T01:23:33.930Z,58.60
2018-01-21T01:24:33.912Z,65.10
2018-01-21T01:25:33.943Z,60.10
2018-01-21T01:26:33.893Z,67.40
2018-01-21T01:27:33.958Z,68.50
2018-01-21T01:28:33.902Z,64.20
2018-01-21T01:29:33.908Z,70.00
2018-01-21T01:30:33.987Z,68.10
2018-01-21T01:31:33.919Z,62.80
2018-01-21T01:32:33.920Z,71.10
2018-01-21T01:33:35.026Z,74.60
2018-01-21T01:34:33.931Z,68.50
2018-01-21T01:35:35.038Z,67.70
2018-01-21T01:36:33.936Z,66.50
2018-01-21T01:37:34.022Z,76.60
2018-01-21T01:38:33.929Z,73.90
2018-01-21T01:39:33.944Z,75.20
2018-01-21T01:40:34.051Z,69.60
2018-01-21T01:41:33.943Z,72.90
2018-01-21T01:42:34.060Z,67.30
2018-01-21T01:43:33.941Z,71.10
2018-01-21T01:44:33.955Z,70.20
2018-01-21T01:45:34.102Z,71.40
2018-01-21T01:46:33.957Z,71.90
2018-01-21T01:47:34.094Z,73.30
2018-01-21T01:48:33.977Z,74.00
2018-01-21T01:49:34.111Z,74.80
2018-01-21T01:50:33.969Z,75.30
2018-01-21T01:51:34.034Z,72.50
2018-01-21T01:52:33.986Z,69.20
2018-01-21T01:53:34.030Z,69.10
2018-01-21T01:54:33.986Z,67.30
2018-01-21T01:55:34.047Z,64.00
2018-01-21T01:56:33.988Z,67.50
2018-01-21T01:57:34.070Z,65.80
2018-01-21T01:58:33.997Z,67.00
2018-01-21T01:59:35.095Z,67.70
2018-01-21T02:00:34.007Z,61.40
2018-01-21T02:01:34.085Z,59.80
2018-01-21T02:02:34.009Z,60.40
2018-01-21T02:03:34.099Z,60.90
2018-01-21T02:04:34.020Z,57.70
2018-01-21T02:05:34.074Z,57.90
2018-01-21T02:06:34.026Z,55.70
2018-01-21T02:07:34.139Z,55.00
2018-01-21T02:08:34.031Z,49.80
2018-01-21T02:09:34.034Z,54.10
2018-01-21T02:10:34.154Z,49.60
2018-01-21T02:11:34.037Z,53.00
2018-01-21T02:12:34.033Z,47.30
2018-01-21T02:13:34.171Z,50.20
2018-01-21T02:14:34.063Z,45.50
2018-01-21T02:15:34.180Z,45.00
2018-01-21T02:16:34.046Z,44.20
2018-01-21T02:17:34.200Z,42.70
2018-01-21T02:18:34.059Z,42.30
2018-01-21T02:19:35.130Z,32.10
2018-01-21T02:20:34.069Z,37.50
2018-01-21T02:21:34.235Z,35.30
2018-01-21T02:22:34.069Z,34.80
2018-01-21T02:23:34.241Z,34.00
2018-01-21T02:24:34.082Z,37.30
2018-01-21T02:25:34.097Z,36.70
2018-01-21T02:26:34.152Z,37.80
2018-01-21T02:27:34.112Z,37.40
2018-01-21T02:28:34.168Z,36.50
2018-01-21T02:29:34.130Z,34.90
2018-01-21T02:30:34.186Z,36.10
2018-01-21T02:31:34.107Z,38.70
2018-01-21T02:32:34.111Z,36.70
2018-01-21T02:33:34.207Z,37.20
2018-01-21T02:34:34.115Z,37.00
2018-01-21T02:35:34.216Z,38.90
2018-01-21T02:36:34.114Z,43.20
2018-01-21T02:37:34.233Z,39.40
2018-01-21T02:38:34.149Z,37.00
2018-01-21T02:39:34.156Z,36.00
2018-01-21T02:40:34.248Z,38.10
2018-01-21T02:41:34.132Z,36.30
2018-01-21T02:42:34.266Z,36.70
2018-01-21T02:43:34.129Z,38.20
2018-01-21T02:44:34.146Z,37.00
2018-01-21T02:45:36.235Z,38.50
2018-01-21T02:46:34.139Z,36.50
2018-01-21T02:47:34.342Z,36.40
2018-01-21T02:48:34.150Z,38.00
2018-01-21T02:49:34.159Z,33.80
2018-01-21T02:50:34.318Z,35.30
2018-01-21T02:51:34.152Z,35.20
2018-01-21T02:52:34.167Z,35.30
2018-01-21T02:53:34.352Z,37.10
2018-01-21T02:54:34.175Z,32.90
2018-01-21T02:55:34.248Z,35.90
2018-01-21T02:56:34.169Z,34.10
2018-01-21T02:57:35.286Z,33.40
2018-01-21T02:58:34.180Z,34.60
2018-01-21T02:59:34.181Z,34.70
2018-01-21T03:00:34.305Z,33.60
2018-01-21T03:01:34.191Z,34.90
2018-01-21T03:02:34.302Z,34.00
2018-01-21T03:03:34.196Z,36.60
2018-01-21T03:04:34.314Z,37.90
2018-01-21T03:05:34.204Z,36.30
2018-01-21T03:06:34.332Z,35.20
2018-01-21T03:07:34.203Z,36.50
2018-01-21T03:08:34.337Z,38.80
2018-01-21T03:09:34.212Z,39.80
2018-01-21T03:10:34.348Z,37.40
2018-01-21T03:11:34.212Z,39.70
2018-01-21T03:12:34.224Z,38.90
2018-01-21T03:13:35.398Z,36.70
2018-01-21T03:14:34.246Z,40.20
2018-01-21T03:15:34.389Z,38.20
2018-01-21T03:16:34.239Z,35.20
2018-01-21T03:17:34.399Z,38.10
2018-01-21T03:18:34.255Z,35.30
2018-01-21T03:19:34.244Z,37.50
2018-01-21T03:20:34.415Z,37.90
2018-01-21T03:21:34.264Z,33.20
2018-01-21T03:22:34.327Z,36.60
2018-01-21T03:23:34.279Z,38.00
2018-01-21T03:24:34.268Z,35.20
2018-01-21T03:25:34.367Z,34.70
2018-01-21T03:26:34.260Z,35.80
2018-01-21T03:27:34.363Z,34.90
2018-01-21T03:28:34.275Z,35.60
2018-01-21T03:29:34.271Z,35.80
2018-01-21T03:30:34.389Z,39.50
2018-01-21T03:31:34.284Z,37.30
2018-01-21T03:32:34.295Z,37.50
2018-01-21T03:33:34.404Z,37.80
2018-01-21T03:34:34.297Z,40.00
2018-01-21T03:35:34.436Z,31.20
2018-01-21T03:36:34.295Z,32.10
2018-01-21T03:37:34.436Z,30.90
2018-01-21T03:38:34.326Z,31.00
2018-01-21T03:39:34.339Z,30.30
2018-01-21T03:40:34.452Z,29.60
2018-01-21T03:41:34.320Z,30.00
2018-01-21T03:42:34.471Z,28.90
2018-01-21T03:43:34.318Z,25.30
2018-01-21T03:44:35.507Z,25.30
2018-01-21T03:45:34.326Z,24.20
2018-01-21T03:46:34.494Z,23.30
2018-01-21T03:47:34.325Z,23.20
2018-01-21T03:48:34.515Z,24.90
2018-01-21T03:49:34.341Z,23.60
2018-01-21T03:50:34.531Z,22.90
2018-01-21T03:51:34.335Z,21.90
2018-01-21T03:52:34.341Z,23.40
2018-01-21T03:53:34.445Z,24.10
2018-01-21T03:54:34.360Z,22.90
2018-01-21T03:55:34.448Z,24.80
2018-01-21T03:56:34.356Z,22.60
2018-01-21T03:57:34.462Z,26.20
2018-01-21T03:58:34.358Z,23.50
2018-01-21T03:59:34.371Z,24.80
2018-01-21T04:00:34.491Z,26.90
2018-01-21T04:01:34.366Z,28.00
2018-01-21T04:02:34.506Z,28.40
2018-01-21T04:03:34.390Z,25.50
2018-01-21T04:04:34.518Z,25.10
2018-01-21T04:05:34.381Z,31.10
2018-01-21T04:06:34.532Z,26.00
2018-01-21T04:07:34.393Z,27.70
2018-01-21T04:08:34.546Z,24.60
2018-01-21T04:09:34.394Z,28.10
2018-01-21T04:10:35.574Z,29.70
2018-01-21T04:11:34.396Z,29.60
2018-01-21T04:12:34.405Z,24.10
2018-01-21T04:13:34.591Z,24.80
2018-01-21T04:14:34.407Z,27.00
2018-01-21T04:15:34.588Z,30.60
2018-01-21T04:16:34.411Z,30.80
2018-01-21T04:17:34.622Z,30.30
2018-01-21T04:18:34.414Z,27.00
2018-01-21T04:19:34.620Z,26.90
2018-01-21T04:20:34.429Z,30.70
2018-01-21T04:21:34.630Z,28.40
2018-01-21T04:22:34.432Z,27.20
2018-01-21T04:23:34.542Z,28.90
2018-01-21T04:24:34.455Z,29.80
2018-01-21T04:25:35.585Z,29.00
2018-01-21T04:26:34.442Z,28.70
2018-01-21T04:27:34.573Z,27.70
2018-01-21T04:28:34.458Z,30.00
2018-01-21T04:29:34.464Z,29.80
2018-01-21T04:30:34.607Z,32.90
2018-01-21T04:31:34.464Z,27.90
2018-01-21T04:32:34.605Z,32.40
2018-01-21T04:33:34.465Z,36.60
2018-01-21T04:34:34.641Z,34.70
2018-01-21T04:35:34.458Z,31.70
2018-01-21T04:36:34.637Z,35.60
2018-01-21T04:37:34.468Z,32.20
2018-01-21T04:38:34.655Z,39.20
2018-01-21T04:39:34.487Z,33.90
2018-01-21T04:40:34.665Z,32.90
2018-01-21T04:41:34.486Z,32.90
2018-01-21T04:42:34.669Z,37.20
2018-01-21T04:43:34.482Z,33.70
2018-01-21T04:44:34.489Z,41.20
2018-01-21T04:45:34.690Z,37.80
2018-01-21T04:46:34.509Z,32.90
2018-01-21T04:47:34.698Z,33.80
2018-01-21T04:48:34.512Z,34.60
2018-01-21T04:49:34.509Z,33.30
2018-01-21T04:50:34.619Z,36.40
2018-01-21T04:51:34.513Z,38.20
2018-01-21T04:52:34.516Z,37.40
2018-01-21T04:53:34.646Z,34.60
2018-01-21T04:54:34.517Z,33.00
2018-01-21T04:55:34.675Z,33.30
2018-01-21T04:56:34.531Z,37.00
2018-01-21T04:57:34.675Z,35.10
2018-01-21T04:58:34.538Z,35.30
2018-01-21T04:59:34.574Z,36.50
2018-01-21T05:00:34.689Z,35.40
2018-01-21T05:01:34.536Z,33.40
2018-01-21T05:02:34.592Z,42.00
2018-01-21T05:03:34.542Z,39.70
2018-01-21T05:04:34.604Z,35.30
2018-01-21T05:05:34.554Z,38.00
2018-01-21T05:06:35.649Z,39.60
2018-01-21T05:07:34.561Z,37.70
2018-01-21T05:08:34.633Z,34.70
2018-01-21T05:09:34.562Z,40.20
2018-01-21T05:10:34.645Z,39.50
2018-01-21T05:11:34.574Z,38.50
2018-01-21T05:12:34.590Z,40.20
2018-01-21T05:13:34.672Z,38.40
2018-01-21T05:14:34.585Z,40.80
2018-01-21T05:15:34.572Z,38.50
2018-01-21T05:16:34.580Z,35.10
2018-01-21T05:17:34.719Z,39.10
2018-01-21T05:18:34.584Z,40.90
2018-01-21T05:19:34.597Z,38.80
2018-01-21T05:20:34.614Z,37.10
2018-01-21T05:21:34.588Z,37.80
2018-01-21T05:22:34.617Z,39.00
2018-01-21T05:23:34.612Z,37.90
2018-01-21T05:24:35.657Z,35.60
2018-01-21T05:25:34.610Z,34.90
2018-01-21T05:26:35.685Z,37.20
2018-01-21T05:27:34.623Z,36.30
2018-01-21T05:28:34.660Z,39.70
2018-01-21T05:29:34.634Z,31.60
2018-01-21T05:30:34.620Z,38.80
2018-01-21T05:31:34.625Z,36.40
2018-01-21T05:32:34.634Z,39.50
2018-01-21T05:33:34.717Z,33.00
2018-01-21T05:34:34.640Z,34.00
2018-01-21T05:35:34.707Z,33.50
2018-01-21T05:36:34.636Z,35.30
2018-01-21T05:37:34.712Z,32.90
2018-01-21T05:38:34.645Z,37.00
2018-01-21T05:39:34.733Z,35.30
2018-01-21T05:40:34.645Z,32.80
2018-01-21T05:41:34.745Z,35.40
2018-01-21T05:42:34.654Z,36.40
2018-01-21T05:43:34.758Z,37.00
2018-01-21T05:44:34.662Z,38.20
2018-01-21T05:45:34.797Z,39.80
2018-01-21T05:46:34.662Z,38.60
2018-01-21T05:47:34.678Z,37.10
2018-01-21T05:48:34.682Z,36.30
2018-01-21T05:49:35.718Z,37.10
2018-01-21T05:50:34.706Z,39.00
2018-01-21T05:51:34.722Z,36.70
2018-01-21T05:52:34.705Z,32.20
2018-01-21T05:53:34.713Z,36.20
2018-01-21T05:54:34.724Z,34.70
2018-01-21T05:55:34.739Z,33.40
2018-01-21T05:56:34.700Z,31.30
2018-01-21T05:57:34.697Z,30.10
2018-01-21T05:58:34.748Z,33.50
2018-01-21T05:59:34.713Z,30.20
2018-01-21T06:00:34.762Z,36.40
2018-01-21T06:01:34.704Z,33.50
2018-01-21T06:02:34.786Z,29.70
2018-01-21T06:03:34.705Z,29.30
2018-01-21T06:04:35.818Z,27.30
2018-01-21T06:05:34.717Z,29.40
2018-01-21T06:06:34.802Z,32.10
2018-01-21T06:07:34.725Z,33.90
2018-01-21T06:08:34.818Z,29.60
2018-01-21T06:09:34.728Z,35.50
2018-01-21T06:10:34.826Z,31.40
2018-01-21T06:11:34.757Z,32.60
2018-01-21T06:12:34.737Z,33.10
2018-01-21T06:13:34.843Z,28.50
2018-01-21T06:14:34.739Z,26.20
2018-01-21T06:15:35.792Z,34.60
2018-01-21T06:16:34.742Z,30.60
2018-01-21T06:17:34.772Z,31.90
2018-01-21T06:18:34.752Z,31.00
2018-01-21T06:19:34.762Z,29.60
2018-01-21T06:20:34.827Z,30.30
2018-01-21T06:21:34.768Z,30.50
2018-01-21T06:22:34.802Z,28.30
2018-01-21T06:23:34.766Z,30.40
2018-01-21T06:24:34.778Z,29.80
2018-01-21T06:25:35.852Z,27.40
2018-01-21T06:26:34.769Z,27.60
2018-01-21T06:27:34.835Z,27.70
2018-01-21T06:28:34.788Z,30.40
2018-01-21T06:29:34.849Z,25.30
2018-01-21T06:30:34.781Z,29.60
2018-01-21T06:31:34.860Z,24.50
2018-01-21T06:32:34.789Z,25.70
2018-01-21T06:33:35.901Z,31.40
2018-01-21T06:34:34.826Z,25.80
2018-01-21T06:35:34.790Z,27.10
2018-01-21T06:36:34.887Z,28.10
2018-01-21T06:37:34.830Z,32.70
2018-01-21T06:38:35.825Z,31.30
2018-01-21T06:39:34.804Z,31.20
2018-01-21T06:40:35.842Z,30.50
2018-01-21T06:41:34.811Z,27.10
2018-01-21T06:42:35.849Z,27.70
2018-01-21T06:43:34.819Z,24.80
2018-01-21T06:44:34.825Z,28.60
2018-01-21T06:45:34.849Z,26.50
2018-01-21T06:46:34.820Z,22.10
2018-01-21T06:47:34.862Z,22.80
2018-01-21T06:48:34.828Z,25.80
2018-01-21T06:49:34.839Z,23.10
2018-01-21T06:50:34.831Z,22.60
2018-01-21T06:51:34.863Z,23.10
2018-01-21T06:52:34.868Z,23.40
2018-01-21T06:53:34.903Z,25.50
2018-01-21T06:54:34.859Z,25.30
2018-01-21T06:55:34.913Z,27.00
2018-01-21T06:56:34.853Z,23.80
2018-01-21T06:57:34.931Z,23.10
2018-01-21T06:58:34.854Z,22.70
2018-01-21T06:59:34.863Z,23.70
2018-01-21T07:00:34.944Z,27.60
2018-01-21T07:01:34.857Z,27.10
2018-01-21T07:02:34.967Z,26.20
2018-01-21T07:03:34.891Z,25.10
2018-01-21T07:04:34.976Z,21.80
2018-01-21T07:05:34.880Z,23.90
2018-01-21T07:06:34.988Z,22.50
2018-01-21T07:07:34.899Z,23.90
2018-01-21T07:08:36.940Z,20.50
2018-01-21T07:09:34.893Z,23.60
2018-01-21T07:10:34.902Z,24.20
2018-01-21T07:11:34.888Z,23.00
2018-01-21T07:12:35.941Z,22.40
2018-01-21T07:13:34.901Z,23.70
2018-01-21T07:14:34.918Z,20.10
2018-01-21T07:15:34.949Z,23.20
2018-01-21T07:16:34.899Z,26.40
2018-01-21T07:17:34.983Z,19.50
2018-01-21T07:18:34.920Z,21.20
2018-01-21T07:19:34.912Z,23.70
2018-01-21T07:20:34.915Z,23.90
2018-01-21T07:21:34.974Z,24.50
2018-01-21T07:22:34.922Z,22.50
2018-01-21T07:23:34.986Z,23.10
2018-01-21T07:24:34.928Z,21.20
2018-01-21T07:25:34.999Z,19.50
2018-01-21T07:26:34.929Z,22.80
2018-01-21T07:27:35.016Z,17.50
2018-01-21T07:28:34.930Z,23.10
2018-01-21T07:29:34.936Z,18.40
2018-01-21T07:30:35.030Z,20.80
2018-01-21T07:31:34.945Z,20.60
2018-01-21T07:32:34.958Z,18.10
2018-01-21T07:33:35.059Z,22.20
2018-01-21T07:34:34.952Z,18.10
2018-01-21T07:35:34.963Z,17.70
2018-01-21T07:36:34.968Z,19.10
2018-01-21T07:37:34.955Z,16.80
2018-01-21T07:38:34.986Z,17.40
2018-01-21T07:39:34.969Z,18.80
2018-01-21T07:40:34.994Z,19.70
2018-01-21T07:41:34.974Z,22.60
2018-01-21T07:42:35.012Z,17.40
2018-01-21T07:43:34.975Z,23.20
2018-01-21T07:44:34.993Z,18.10
2018-01-21T07:45:35.040Z,16.20
2018-01-21T07:46:34.990Z,20.70
2018-01-21T07:47:35.043Z,20.10
2018-01-21T07:48:34.995Z,16.60
2018-01-21T07:49:35.052Z,15.70
2018-01-21T07:50:35.011Z,17.60
2018-01-21T07:51:35.082Z,16.70
2018-01-21T07:52:34.993Z,21.70
2018-01-21T07:53:35.081Z,16.90
2018-01-21T07:54:35.008Z,15.00
2018-01-21T07:55:35.124Z,17.00
2018-01-21T07:56:35.016Z,16.90
2018-01-21T07:57:37.081Z,16.00
2018-01-21T07:58:35.010Z,18.50
2018-01-21T07:59:36.036Z,17.70
2018-01-21T08:00:35.020Z,19.70
2018-01-21T08:01:39.883Z,17.30
2018-01-21T08:02:35.043Z,17.90
2018-01-21T08:03:35.080Z,20.30
2018-01-21T08:04:35.033Z,16.10
2018-01-21T08:05:35.088Z,17.50
2018-01-21T08:06:35.034Z,14.70
2018-01-21T08:07:36.125Z,18.90
2018-01-21T08:08:35.037Z,18.60
2018-01-21T08:09:35.055Z,14.20
2018-01-21T08:10:37.170Z,12.50
2018-01-21T08:11:35.050Z,16.90
2018-01-21T08:12:35.053Z,13.70
2018-01-21T08:13:37.202Z,15.90
2018-01-21T08:14:35.078Z,17.70
2018-01-21T08:15:41.931Z,15.60
2018-01-21T08:16:35.059Z,17.10
2018-01-21T08:17:35.170Z,17.60
2018-01-21T08:18:35.058Z,17.80
2018-01-21T08:26:10.378Z,16.60
2018-01-21T08:27:05.759Z,12.30
2018-01-21T08:28:11.831Z,16.90
2018-01-21T08:29:05.798Z,16.50
2018-01-21T08:30:10.787Z,15.10
2018-01-21T08:31:05.787Z,18.10
2018-01-21T08:32:10.798Z,17.20
2018-01-21T08:33:05.770Z,13.70
2018-01-21T08:34:05.895Z,14.60
2018-01-21T08:35:05.760Z,14.20
2018-01-21T08:36:06.827Z,20.10
2018-01-21T08:37:05.765Z,17.40
2018-01-21T08:38:05.950Z,16.60
2018-01-21T08:39:05.779Z,17.60
2018-01-21T08:40:10.816Z,16.50
2018-01-21T08:41:05.802Z,21.40
2018-01-21T08:42:10.724Z,13.60
2018-01-21T08:43:05.814Z,17.00
2018-01-21T08:44:07.893Z,16.80
2018-01-21T08:45:05.810Z,16.60
2018-01-21T08:46:05.846Z,14.60
2018-01-21T08:47:05.797Z,18.40
2018-01-21T08:48:05.844Z,17.50
2018-01-21T08:49:05.807Z,13.10
2018-01-21T08:50:05.865Z,13.90
2018-01-21T08:51:05.806Z,14.20
2018-01-21T08:52:16.729Z,16.60
2018-01-21T08:53:05.826Z,14.50
2018-01-21T08:54:12.818Z,13.20
2018-01-21T08:55:05.830Z,15.20
2018-01-21T08:56:11.785Z,12.70
2018-01-21T08:57:05.832Z,20.70
2018-01-21T09:33:41.143Z,12.90
2018-01-21T09:34:46.190Z,13.30
2018-01-21T09:36:54.122Z,11.70
2018-01-21T09:37:54.107Z,11.00
2018-01-21T09:39:47.627Z,12.10
2018-01-21T09:40:47.353Z,13.30
2018-01-21T09:41:47.376Z,12.50
2018-01-21T09:42:47.371Z,9.90
2018-01-21T09:43:47.369Z,11.20
2018-01-21T09:44:47.432Z,12.80
2018-01-21T09:45:47.368Z,14.00
2018-01-21T09:46:47.450Z,13.70
2018-01-21T09:47:47.368Z,10.20
2018-01-21T09:48:47.526Z,11.50
2018-01-21T09:49:48.507Z,10.30
2018-01-21T09:50:47.471Z,11.50
2018-01-21T09:51:47.384Z,12.30
2018-01-21T09:52:47.493Z,12.50
2018-01-21T09:53:47.397Z,9.10
2018-01-21T09:54:47.451Z,12.40
2018-01-21T09:55:47.411Z,13.30
2018-01-21T09:56:48.436Z,9.20
2018-01-21T09:57:47.404Z,10.40
2018-01-21T09:58:47.803Z,9.30
2018-01-21T09:59:47.427Z,10.20
2018-01-21T10:00:47.436Z,12.20
2018-01-21T10:01:47.412Z,10.90
2018-01-21T10:02:47.446Z,12.00
2018-01-21T10:03:47.424Z,10.30
2018-01-21T10:04:47.422Z,11.70
2018-01-21T10:05:47.486Z,10.40
2018-01-21T10:06:47.471Z,16.20
2018-01-21T10:07:47.426Z,10.40
2018-01-21T10:08:47.432Z,9.60
2018-01-21T10:09:47.435Z,8.60
2018-01-21T10:10:47.501Z,7.80
2018-01-21T10:11:47.432Z,10.00
2018-01-21T10:12:47.443Z,12.10
2018-01-21T10:13:47.448Z,8.70
2018-01-21T10:14:47.514Z,8.60
2018-01-21T10:15:47.445Z,10.70
2018-01-21T10:16:47.456Z,11.30
2018-01-21T10:17:47.548Z,14.00
2018-01-21T10:18:47.466Z,14.10
2018-01-21T10:19:47.583Z,7.60
2018-01-21T10:20:47.459Z,11.50
2018-01-21T10:21:48.510Z,9.60
2018-01-21T10:22:47.471Z,8.70
2018-01-21T10:23:48.525Z,8.70
2018-01-21T10:24:47.474Z,9.50
2018-01-21T10:25:47.469Z,9.00
2018-01-21T10:26:47.507Z,11.50
2018-01-21T10:27:47.508Z,10.90
2018-01-21T10:28:47.516Z,10.90
2018-01-21T10:29:47.516Z,10.50
2018-01-21T10:30:48.562Z,9.20
2018-01-21T10:31:47.517Z,8.10
2018-01-21T10:32:47.547Z,7.50
2018-01-21T10:33:47.522Z,8.40
2018-01-21T10:34:47.574Z,8.40
2018-01-21T10:35:47.501Z,8.80
2018-01-21T10:36:47.590Z,10.00
2018-01-21T10:37:47.515Z,7.80
2018-01-21T10:38:47.593Z,6.10
2018-01-21T10:39:47.519Z,9.20
2018-01-21T10:40:47.599Z,11.50
2018-01-21T10:41:47.524Z,9.40
2018-01-21T10:42:48.645Z,9.20
2018-01-21T10:43:47.543Z,9.00
2018-01-21T10:44:47.631Z,10.20
2018-01-21T10:45:47.558Z,9.50
2018-01-21T10:46:47.654Z,8.20
2018-01-21T10:47:47.556Z,7.60
2018-01-21T10:48:47.664Z,7.00
2018-01-21T10:49:47.593Z,10.00
2018-01-21T10:50:47.571Z,10.30
2018-01-21T10:51:47.584Z,9.10
2018-01-21T10:52:47.597Z,12.90
2018-01-21T10:53:47.555Z,8.60
2018-01-21T10:54:47.595Z,6.60
2018-01-21T10:55:47.559Z,10.70
2018-01-21T10:56:47.689Z,10.90
2018-01-21T10:57:47.571Z,9.20
2018-01-21T10:58:47.640Z,8.50
2018-01-21T10:59:47.574Z,15.20
2018-01-21T11:00:47.632Z,8.00
2018-01-21T11:01:47.588Z,10.80
2018-01-21T11:02:47.654Z,7.30
2018-01-21T11:03:47.592Z,11.00
2018-01-21T11:04:47.589Z,7.30
2018-01-21T11:05:47.664Z,6.80
2018-01-21T11:06:47.611Z,8.90
2018-01-21T11:07:47.691Z,9.10
2018-01-21T11:08:47.604Z,9.10
2018-01-21T11:09:47.696Z,9.50
2018-01-21T11:10:47.601Z,7.90
2018-01-21T11:11:47.706Z,6.20
2018-01-21T11:12:47.611Z,8.30
2018-01-21T11:13:47.716Z,9.10
2018-01-21T11:14:47.609Z,9.10
2018-01-21T11:15:48.653Z,8.20
2018-01-21T11:16:47.616Z,10.50
2018-01-21T11:17:47.647Z,9.30
2018-01-21T11:18:47.646Z,7.00
2018-01-21T11:19:47.639Z,6.80
2018-01-21T11:20:47.642Z,7.70
2018-01-21T11:21:47.684Z,8.60
2018-01-21T11:22:47.692Z,7.30
2018-01-21T11:23:47.669Z,6.50
2018-01-21T11:24:47.712Z,6.50
2018-01-21T11:25:47.694Z,9.10
2018-01-21T11:26:47.707Z,11.00
2018-01-21T11:27:47.648Z,7.70
2018-01-21T11:28:47.784Z,7.80
2018-01-21T11:29:47.663Z,8.90
2018-01-21T11:30:49.785Z,9.90
2018-01-21T11:31:47.666Z,9.60
2018-01-21T11:32:47.759Z,10.30
2018-01-21T11:33:47.663Z,10.70
2018-01-21T11:34:47.682Z,8.30
2018-01-21T11:35:47.665Z,10.20
2018-01-21T11:36:48.701Z,6.70
2018-01-21T11:37:47.674Z,8.80
2018-01-21T11:38:48.720Z,11.80
2018-01-21T11:39:47.679Z,7.90
2018-01-21T11:40:49.800Z,9.80
2018-01-21T11:41:47.688Z,9.30
2018-01-21T11:42:48.739Z,6.70
2018-01-21T11:43:47.706Z,8.20
2018-01-21T11:44:48.758Z,10.50
2018-01-21T11:45:47.695Z,7.70
2018-01-21T11:46:47.751Z,9.10
2018-01-21T11:47:47.713Z,4.90
2018-01-21T11:48:47.714Z,7.80
2018-01-21T11:49:47.708Z,8.40
2018-01-21T11:50:47.772Z,10.10
2018-01-21T11:51:47.720Z,8.30
2018-01-21T11:52:47.784Z,8.50
2018-01-21T11:53:47.721Z,9.60
2018-01-21T11:54:47.794Z,7.20
2018-01-21T11:55:47.752Z,6.20
2018-01-21T11:56:47.866Z,4.40
2018-01-21T11:57:47.735Z,7.00
2018-01-21T11:58:47.849Z,5.70
2018-01-21T11:59:47.741Z,6.00
2018-01-21T12:00:48.767Z,5.30
2018-01-21T12:01:47.741Z,7.70
2018-01-21T12:02:47.858Z,8.00
2018-01-21T12:03:47.739Z,10.20
2018-01-21T12:04:47.795Z,9.90
2018-01-21T12:05:47.760Z,8.40
2018-01-21T12:06:47.776Z,11.80
2018-01-21T12:07:47.759Z,7.20
2018-01-21T12:08:48.824Z,6.30
2018-01-21T12:09:47.815Z,6.40
2018-01-21T12:10:47.823Z,10.50
2018-01-21T12:11:47.774Z,5.90
2018-01-21T12:12:49.864Z,8.30
2018-01-21T12:13:47.787Z,8.40
2018-01-21T12:14:47.824Z,8.30
2018-01-21T12:15:47.814Z,7.30
2018-01-21T12:16:47.794Z,8.40
2018-01-21T12:17:47.850Z,7.30
2018-01-21T12:18:47.790Z,11.50
2018-01-21T12:19:47.859Z,5.70
2018-01-21T12:20:47.793Z,8.90
2018-01-21T12:21:47.874Z,6.20
2018-01-21T12:22:47.802Z,5.90
2018-01-21T12:23:47.910Z,5.90
2018-01-21T12:24:47.844Z,5.60
2018-01-21T12:25:47.903Z,6.40
2018-01-21T12:26:47.872Z,5.80
2018-01-21T12:27:47.915Z,8.40
2018-01-21T12:28:47.822Z,8.50
2018-01-21T12:29:47.925Z,5.70
2018-01-21T12:30:47.822Z,5.30
2018-01-21T12:31:47.856Z,8.00
2018-01-21T12:32:48.961Z,8.20
2018-01-21T12:33:48.881Z,6.40
2018-01-21T12:34:48.957Z,6.00
2018-01-21T12:35:49.929Z,8.60
2018-01-21T12:36:47.902Z,11.40
2018-01-21T12:37:48.914Z,8.50
2018-01-21T12:38:47.869Z,6.20
2018-01-21T12:39:52.615Z,4.80
2018-01-21T12:40:47.857Z,4.10
2018-01-21T12:41:47.923Z,8.20
2018-01-21T12:42:47.884Z,6.80
2018-01-21T12:43:47.918Z,6.50
2018-01-21T12:44:47.880Z,5.00
2018-01-21T12:45:47.937Z,4.60
2018-01-21T12:46:47.880Z,6.60
2018-01-21T12:47:47.878Z,2.90
2018-01-21T12:48:47.969Z,4.90
2018-01-21T12:49:47.882Z,7.10
2018-01-21T12:50:47.977Z,5.90
2018-01-21T12:51:47.902Z,5.20
2018-01-21T12:52:48.903Z,7.10
2018-01-21T12:53:47.892Z,7.40
2018-01-21T12:54:53.676Z,8.00
2018-01-21T12:55:47.895Z,6.40
2018-01-21T12:56:48.020Z,6.30
2018-01-21T12:57:47.903Z,8.20
2018-01-21T12:58:48.954Z,6.10
2018-01-21T12:59:47.907Z,5.50
2018-01-21T13:00:53.678Z,5.60
2018-01-21T13:01:47.914Z,5.20
2018-01-21T13:02:47.960Z,6.30
2018-01-21T13:03:47.924Z,5.00
2018-01-21T13:04:47.969Z,3.10
2018-01-21T13:05:47.933Z,8.40
2018-01-21T13:06:47.984Z,7.50
2018-01-21T13:07:47.950Z,5.50
2018-01-21T13:08:47.996Z,7.20
2018-01-21T13:09:47.950Z,5.60
2018-01-21T13:10:49.033Z,7.20
2018-01-21T13:11:47.940Z,5.10
2018-01-21T13:12:48.092Z,8.80
2018-01-21T13:13:47.961Z,5.50
2018-01-21T13:14:48.036Z,6.30
2018-01-21T13:15:47.977Z,5.80
2018-01-21T13:16:53.683Z,8.00
2018-01-21T13:17:48.008Z,4.80
2018-01-21T13:18:48.069Z,4.30
2018-01-21T13:19:47.967Z,6.30
2018-01-21T13:20:48.077Z,8.40
2018-01-21T13:21:47.982Z,7.60
2018-01-21T13:22:48.114Z,8.40
2018-01-21T13:23:47.988Z,6.20
2018-01-21T13:24:49.024Z,9.10
2018-01-21T13:25:47.982Z,6.60
2018-01-21T13:26:49.056Z,4.60
2018-01-21T13:27:47.989Z,5.20
2018-01-21T13:28:50.075Z,4.00
2018-01-21T13:29:48.012Z,6.40
2018-01-21T13:30:53.673Z,5.60
2018-01-21T13:31:48.002Z,7.60
2018-01-21T13:32:48.047Z,4.60
2018-01-21T13:33:49.100Z,8.20
2018-01-21T13:34:48.016Z,11.60
2018-01-21T13:35:48.075Z,7.10
2018-01-21T13:36:48.019Z,7.40
2018-01-21T13:37:49.115Z,6.70
2018-01-21T13:38:48.077Z,7.70
2018-01-21T13:39:53.631Z,5.10
2018-01-21T13:40:48.050Z,5.30
2018-01-21T13:41:49.146Z,5.80
2018-01-21T13:42:48.048Z,9.90